createdAt,value
2023-05-03T00:00:17.908Z,101609.91
2023-05-03T00:02:45.020Z,101618.69
2023-05-03T00:05:17.936Z,101622.19
2023-05-03T00:07:46.753Z,101623.09
2023-05-03T00:10:16.385Z,101612.59
2023-05-03T00:12:43.976Z,101623.16
2023-05-03T00:15:11.351Z,101624.91
2023-05-03T00:17:38.270Z,101629.31
2023-05-03T00:20:05.953Z,101631.97
2023-05-03T00:22:32.768Z,101627.56
2023-05-03T00:25:00.063Z,101631.09
2023-05-03T00:27:26.708Z,101632.00
2023-05-03T00:29:53.405Z,101640.81
2023-05-03T00:32:23.297Z,101641.69
2023-05-03T00:34:55.021Z,101631.13
2023-05-03T00:37:21.961Z,101628.53
2023-05-03T00:39:48.848Z,101630.34
2023-05-03T00:42:15.981Z,101625.09
2023-05-03T00:44:42.633Z,101633.88
2023-05-03T00:47:09.727Z,101641.84
2023-05-03T00:49:37.096Z,101645.34
2023-05-03T00:52:03.779Z,101647.16
2023-05-03T00:54:30.689Z,101648.91
2023-05-03T00:56:57.806Z,101651.56
2023-05-03T00:59:24.893Z,101653.31
2023-05-03T01:01:53.367Z,101648.94
2023-05-03T01:04:21.749Z,101659.47
2023-05-03T01:06:59.363Z,101663.84
2023-05-03T01:09:49.261Z,101664.75
2023-05-03T01:12:30.699Z,101661.25
2023-05-03T01:15:24.570Z,101665.66
2023-05-03T01:17:58.201Z,101670.03
2023-05-03T01:20:31.004Z,101672.66
2023-05-03T01:23:05.354Z,101671.75
2023-05-03T01:25:32.814Z,101675.28
2023-05-03T01:27:59.915Z,101671.78
2023-05-03T01:30:28.824Z,101678.78
2023-05-03T01:33:21.434Z,101677.91
2023-05-03T01:35:54.509Z,101683.16
2023-05-03T01:38:22.582Z,101684.94
2023-05-03T01:40:52.598Z,101681.41
2023-05-03T01:43:20.963Z,101687.53
2023-05-03T01:45:48.055Z,101690.19
2023-05-03T01:48:16.984Z,101690.19
2023-05-03T01:50:44.450Z,101690.19
2023-05-03T01:53:11.100Z,101693.69
2023-05-03T01:55:37.798Z,101694.56
2023-05-03T01:58:04.462Z,101688.44
2023-05-03T02:00:31.252Z,101684.03
2023-05-03T02:03:00.576Z,101685.78
2023-05-03T02:05:27.347Z,101684.91
2023-05-03T02:07:53.985Z,101684.91
2023-05-03T02:10:20.752Z,101690.19
2023-05-03T02:12:47.368Z,101692.81
2023-05-03T02:15:14.285Z,101691.06
2023-05-03T02:17:42.759Z,101688.41
2023-05-03T02:20:12.706Z,101683.16
2023-05-03T02:22:39.473Z,101684.94
2023-05-03T02:25:06.903Z,101687.53
2023-05-03T02:27:33.616Z,101692.84
2023-05-03T02:30:01.403Z,101690.19
2023-05-03T02:32:28.504Z,101697.22
2023-05-03T02:34:55.586Z,101702.47
2023-05-03T02:37:22.328Z,101691.09
2023-05-03T02:39:48.999Z,101695.47
2023-05-03T02:42:16.218Z,101696.34
2023-05-03T02:44:42.952Z,101698.06
2023-05-03T02:47:10.539Z,101698.06
2023-05-03T02:49:37.222Z,101703.34
2023-05-03T02:52:04.055Z,101702.47
2023-05-03T02:54:31.417Z,101702.47
2023-05-03T02:56:58.081Z,101705.09
2023-05-03T02:59:24.755Z,101704.25
2023-05-03T03:01:51.468Z,101718.25
2023-05-03T03:04:18.168Z,101711.22
2023-05-03T03:06:44.927Z,101720.91
2023-05-03T03:09:12.614Z,101720.00
2023-05-03T03:11:39.304Z,101721.78
2023-05-03T03:14:06.133Z,101715.63
2023-05-03T03:16:32.933Z,101721.75
2023-05-03T03:18:59.728Z,101718.22
2023-05-03T03:21:26.810Z,101720.84
2023-05-03T03:23:53.420Z,101726.97
2023-05-03T03:26:20.074Z,101725.22
2023-05-03T03:28:46.711Z,101734.00
2023-05-03T03:31:13.596Z,101740.13
2023-05-03T03:33:40.388Z,101741.03
2023-05-03T03:36:07.956Z,101742.78
2023-05-03T03:38:34.647Z,101748.03
2023-05-03T03:41:01.571Z,101749.81
2023-05-03T03:43:28.369Z,101745.41
2023-05-03T03:45:54.986Z,101748.03
2023-05-03T03:48:21.597Z,101748.03
2023-05-03T03:50:48.282Z,101739.28
2023-05-03T03:53:14.954Z,101747.16
2023-05-03T03:55:41.726Z,101742.78
2023-05-03T03:58:08.879Z,101756.84
2023-05-03T04:00:38.240Z,101755.06
2023-05-03T04:03:07.587Z,101756.81
2023-05-03T04:05:34.929Z,101762.09
2023-05-03T04:08:01.607Z,101769.97
2023-05-03T04:10:28.271Z,101759.47
2023-05-03T04:12:55.701Z,101769.97
2023-05-03T04:15:22.334Z,101760.31
2023-05-03T04:17:49.638Z,101773.47
2023-05-03T04:20:17.853Z,101775.22
2023-05-03T04:22:44.502Z,101768.22
2023-05-03T04:25:19.822Z,101772.59
2023-05-03T04:27:47.478Z,101787.50
2023-05-03T04:30:15.581Z,101785.75
2023-05-03T04:32:42.858Z,101790.16
2023-05-03T04:35:10.936Z,101790.16
2023-05-03T04:37:38.164Z,101792.78
2023-05-03T04:40:08.644Z,101796.31
2023-05-03T04:42:36.381Z,101798.06
2023-05-03T04:45:03.943Z,101800.72
2023-05-03T04:47:30.993Z,101800.69
2023-05-03T04:49:57.704Z,101804.22
2023-05-03T04:52:25.727Z,101806.84
2023-05-03T04:54:52.582Z,101808.63
2023-05-03T04:57:19.364Z,101810.34
2023-05-03T04:59:46.145Z,101815.63
2023-05-03T05:02:12.774Z,101820.00
2023-05-03T05:04:39.860Z,101815.63
2023-05-03T05:07:06.725Z,101822.63
2023-05-03T05:09:33.387Z,101821.78
2023-05-03T05:12:00.104Z,101827.91
2023-05-03T05:14:28.433Z,101828.78
2023-05-03T05:16:55.167Z,101838.44
2023-05-03T05:19:21.869Z,101834.06
2023-05-03T05:21:48.584Z,101838.44
2023-05-03T05:24:15.358Z,101841.97
2023-05-03T05:26:43.300Z,101840.22
2023-05-03T05:29:10.788Z,101840.22
2023-05-03T05:31:37.522Z,101839.34
2023-05-03T05:34:04.301Z,101838.47
2023-05-03T05:36:31.171Z,101842.84
2023-05-03T05:38:57.848Z,101844.63
2023-05-03T05:41:24.761Z,101856.91
2023-05-03T05:43:51.591Z,101848.09
2023-05-03T05:46:21.170Z,101849.91
2023-05-03T05:48:47.996Z,101849.91
2023-05-03T05:51:14.659Z,101855.19
2023-05-03T05:53:41.382Z,101847.28
2023-05-03T05:56:08.739Z,101859.56
2023-05-03T05:58:37.579Z,101854.28
2023-05-03T06:01:04.985Z,101865.69
2023-05-03T06:03:32.073Z,101861.31
2023-05-03T06:05:58.770Z,101860.44
2023-05-03T06:08:25.916Z,101863.94
2023-05-03T06:10:53.244Z,101863.06
2023-05-03T06:13:20.037Z,101867.47
2023-05-03T06:15:46.696Z,101862.16
2023-05-03T06:18:13.468Z,101872.69
2023-05-03T06:20:40.303Z,101876.22
2023-05-03T06:23:06.930Z,101874.44
2023-05-03T06:25:33.664Z,101879.69
2023-05-03T06:28:00.465Z,101877.88
2023-05-03T06:30:28.771Z,101876.06
2023-05-03T06:32:55.572Z,101883.09
2023-05-03T06:35:22.310Z,101882.22
2023-05-03T06:37:49.601Z,101883.09
2023-05-03T06:40:16.384Z,101882.19
2023-05-03T06:42:43.024Z,101893.59
2023-05-03T06:45:10.115Z,101891.78
2023-05-03T06:47:37.290Z,101889.09
2023-05-03T06:50:05.000Z,101899.66
2023-05-03T06:52:32.023Z,101895.28
2023-05-03T06:54:58.663Z,101904.03
2023-05-03T06:57:27.042Z,101911.06
2023-05-03T06:59:55.433Z,101908.31
2023-05-03T07:02:22.747Z,101905.66
2023-05-03T07:04:49.658Z,101911.81
2023-05-03T07:07:16.605Z,101907.38
2023-05-03T07:09:44.052Z,101920.56
2023-05-03T07:12:11.290Z,101913.47
2023-05-03T07:14:39.693Z,101916.06
2023-05-03T07:17:06.717Z,101919.56
2023-05-03T07:19:33.422Z,101927.44
2023-05-03T07:22:00.198Z,101928.22
2023-05-03T07:24:26.830Z,101925.53
2023-05-03T07:26:53.937Z,101929.91
2023-05-03T07:29:21.132Z,101935.19
2023-05-03T07:31:47.902Z,101931.59
2023-05-03T07:34:15.310Z,101936.84
2023-05-03T07:36:42.220Z,101929.72
2023-05-03T07:39:08.897Z,101940.16
2023-05-03T07:41:35.665Z,101932.84
2023-05-03T07:44:02.322Z,101938.63
2023-05-03T07:46:29.205Z,101943.63
2023-05-03T07:48:55.865Z,101949.75
2023-05-03T07:51:22.726Z,101951.50
2023-05-03T07:53:49.351Z,101958.69
2023-05-03T07:56:16.080Z,101955.34
2023-05-03T07:58:43.801Z,101958.16
2023-05-03T08:01:13.532Z,101965.28
2023-05-03T08:03:40.684Z,101968.84
2023-05-03T08:06:08.405Z,101968.84
2023-05-03T08:08:36.601Z,101974.91
2023-05-03T08:11:03.309Z,101979.25
2023-05-03T08:13:29.950Z,101972.19
2023-05-03T08:15:56.825Z,101969.53
2023-05-03T08:18:23.918Z,101981.88
2023-05-03T08:20:50.772Z,101972.22
2023-05-03T08:23:17.922Z,101981.06
2023-05-03T08:25:45.481Z,101980.09
2023-05-03T08:28:12.286Z,101977.28
2023-05-03T08:30:39.220Z,101976.34
2023-05-03T08:33:06.229Z,101981.72
2023-05-03T08:35:32.997Z,101975.41
2023-05-03T08:37:59.607Z,101984.16
2023-05-03T08:40:28.329Z,101979.69
2023-05-03T08:42:56.932Z,101994.56
2023-05-03T08:45:23.820Z,101996.28
2023-05-03T08:47:56.463Z,101999.88
2023-05-03T08:50:24.435Z,101999.03
2023-05-03T08:52:51.287Z,102000.66
2023-05-03T08:55:18.181Z,102006.69
2023-05-03T08:57:44.859Z,102004.91
2023-05-03T09:00:13.013Z,101998.63
2023-05-03T09:02:40.453Z,101998.63
2023-05-03T09:05:16.427Z,102003.00
2023-05-03T09:08:06.587Z,102003.81
2023-05-03T09:10:37.043Z,102006.28
2023-05-03T09:13:04.065Z,102007.75
2023-05-03T09:15:31.294Z,102011.06
2023-05-03T09:18:06.910Z,102014.41
2023-05-03T09:20:38.458Z,102007.84
2023-05-03T09:23:06.848Z,102014.44
2023-05-03T09:25:45.944Z,102019.28
2023-05-03T09:28:17.457Z,102012.81
2023-05-03T09:30:45.207Z,102013.75
2023-05-03T09:33:12.282Z,102019.22
2023-05-03T09:35:39.343Z,102020.78
2023-05-03T09:38:06.325Z,102028.56
2023-05-03T09:40:33.250Z,102029.41
2023-05-03T09:43:11.609Z,102019.41
2023-05-03T09:45:39.097Z,102027.72
2023-05-03T09:48:07.395Z,102027.09
2023-05-03T09:50:35.818Z,102020.13
2023-05-03T09:53:04.634Z,102027.81
2023-05-03T09:55:38.629Z,102031.66
2023-05-03T09:58:07.764Z,102027.94
2023-05-03T10:00:43.994Z,102028.88
2023-05-03T10:03:12.875Z,102028.66
2023-05-03T10:05:47.132Z,102023.78
2023-05-03T10:08:27.755Z,102029.38
2023-05-03T10:10:54.635Z,102022.19
2023-05-03T10:13:23.266Z,102029.38
2023-05-03T10:15:56.713Z,102026.91
2023-05-03T10:18:27.598Z,102023.03
2023-05-03T10:21:01.355Z,102024.56
2023-05-03T10:23:28.112Z,102030.56
2023-05-03T10:26:11.760Z,102034.41
2023-05-03T10:28:38.423Z,102023.59
2023-05-03T10:31:05.523Z,102025.59
2023-05-03T10:33:35.259Z,102031.88
2023-05-03T10:36:13.444Z,102041.47
2023-05-03T10:38:40.234Z,102031.97
2023-05-03T10:41:07.206Z,102039.44
2023-05-03T10:43:33.832Z,102038.63
2023-05-03T10:46:06.043Z,102037.13
2023-05-03T10:48:34.049Z,102037.22
2023-05-03T10:51:38.865Z,102037.94
2023-05-03T10:54:05.577Z,102044.34
2023-05-03T10:56:32.217Z,102052.06
2023-05-03T10:58:59.123Z,102050.94
2023-05-03T11:01:27.453Z,102052.91
2023-05-03T11:04:13.969Z,102043.81
2023-05-03T11:06:41.671Z,102045.13
2023-05-03T11:09:10.452Z,102048.41
2023-05-03T11:11:40.139Z,102052.28
2023-05-03T11:14:11.617Z,102048.72
2023-05-03T11:16:47.318Z,102057.56
2023-05-03T11:19:14.911Z,102064.97
2023-05-03T11:21:42.658Z,102053.47
2023-05-03T11:24:09.982Z,102057.84
2023-05-03T11:26:39.577Z,102054.03
2023-05-03T11:29:06.486Z,102062.03
2023-05-03T11:31:33.236Z,102065.53
2023-05-03T11:33:59.923Z,102065.19
2023-05-03T11:36:28.018Z,102063.03
2023-05-03T11:38:54.853Z,102062.31
2023-05-03T11:41:21.687Z,102066.34
2023-05-03T11:43:57.561Z,102053.31
2023-05-03T11:46:34.075Z,102063.13
2023-05-03T11:49:02.791Z,102060.91
2023-05-03T11:51:31.417Z,102064.38
2023-05-03T11:54:13.014Z,102063.31
2023-05-03T11:56:48.710Z,102061.81
2023-05-03T11:59:17.322Z,102057.63
2023-05-03T12:01:43.937Z,102070.06
2023-05-03T12:04:13.005Z,102045.59
2023-05-03T12:06:40.988Z,102061.91
2023-05-03T12:09:15.741Z,102060.91
2023-05-03T12:11:44.573Z,102068.47
2023-05-03T12:14:11.918Z,102061.63
2023-05-03T12:16:53.440Z,102068.91
2023-05-03T12:19:28.184Z,102063.22
2023-05-03T12:22:18.212Z,102080.88
2023-05-03T12:24:45.482Z,102070.28
2023-05-03T12:27:14.289Z,102080.75
2023-05-03T12:29:42.061Z,102075.78
2023-05-03T12:32:10.424Z,102079.19
2023-05-03T12:34:41.424Z,102077.66
2023-05-03T12:37:11.853Z,102089.13
2023-05-03T12:39:40.064Z,102079.91
2023-05-03T12:42:15.160Z,102077.81
2023-05-03T12:44:43.093Z,102080.19
2023-05-03T12:47:11.126Z,102068.47
2023-05-03T12:49:39.194Z,102078.66
2023-05-03T12:52:35.559Z,102075.78
2023-05-03T12:54:55.687Z,102083.00
2023-05-03T12:57:23.980Z,102072.56
2023-05-03T12:59:54.949Z,102069.13
2023-05-03T13:04:59.649Z,102070.28
2023-05-03T13:07:30.477Z,102071.91
2023-05-03T13:12:29.142Z,102072.06
2023-05-03T13:14:55.973Z,102078.34
2023-05-03T13:17:23.375Z,102069.81
2023-05-03T13:19:51.414Z,102068.81
2023-05-03T13:22:18.768Z,102072.19
2023-05-03T13:24:47.154Z,102061.75
2023-05-03T13:27:14.414Z,102063.50
2023-05-03T13:29:41.775Z,102061.91
2023-05-03T13:32:09.594Z,102071.56
2023-05-03T13:34:36.956Z,102061.91
2023-05-03T13:37:06.572Z,102062.69
2023-05-03T13:39:33.212Z,102072.69
2023-05-03T13:41:59.968Z,102068.59
2023-05-03T13:44:26.648Z,102076.13
2023-05-03T13:46:53.636Z,102091.09
2023-05-03T13:49:20.805Z,102113.72
2023-05-03T13:51:47.715Z,102120.22
2023-05-03T13:54:14.470Z,102142.06
2023-05-03T13:56:43.059Z,102146.81
2023-05-03T13:59:13.893Z,102150.59
2023-05-03T14:01:41.344Z,102141.28
2023-05-03T14:04:08.364Z,102139.78
2023-05-03T14:06:35.116Z,102143.38
2023-05-03T14:09:02.806Z,102137.03
2023-05-03T14:11:30.903Z,102141.28
2023-05-03T14:13:58.730Z,102140.34
2023-05-03T14:18:57.259Z,102149.44
2023-05-03T14:21:24.624Z,102158.41
2023-05-03T14:23:51.293Z,102158.41
2023-05-03T14:26:19.533Z,102161.53
2023-05-03T14:28:46.372Z,102160.63
2023-05-03T14:31:13.399Z,102170.72
2023-05-03T14:33:40.198Z,102184.28
2023-05-03T14:36:10.937Z,102171.84
2023-05-03T14:38:37.702Z,102156.44
2023-05-03T14:41:04.671Z,102149.81
2023-05-03T14:43:32.507Z,102150.75
2023-05-03T14:45:59.238Z,102149.63
2023-05-03T14:48:26.230Z,102146.44
2023-05-03T14:50:54.306Z,102146.19
2023-05-03T14:53:21.931Z,102150.84
2023-05-03T14:55:48.677Z,102151.19
2023-05-03T14:58:15.855Z,102154.31
2023-05-03T15:00:43.457Z,102148.94
2023-05-03T15:03:12.132Z,102164.78
2023-05-03T15:05:46.571Z,102175.88
2023-05-03T15:08:19.312Z,102174.31
2023-05-03T15:10:46.733Z,102188.09
2023-05-03T15:13:14.518Z,102194.72
2023-05-03T15:15:45.898Z,102173.66
2023-05-03T15:18:14.652Z,102171.53
2023-05-03T15:20:41.601Z,102175.00
2023-05-03T15:23:08.286Z,102170.38
2023-05-03T15:25:35.650Z,102169.53
2023-05-03T15:28:04.447Z,102177.59
2023-05-03T15:30:33.001Z,102177.66
2023-05-03T15:33:01.087Z,102175.00
2023-05-03T15:35:28.086Z,102187.44
2023-05-03T15:37:54.786Z,102198.03
2023-05-03T15:40:23.717Z,102201.50
2023-05-03T15:42:51.982Z,102208.63
2023-05-03T15:45:19.124Z,102210.53
2023-05-03T15:47:46.336Z,102216.94
2023-05-03T15:50:13.910Z,102212.69
2023-05-03T15:52:41.226Z,102227.00
2023-05-03T15:55:09.519Z,102227.00
2023-05-03T15:57:36.232Z,102232.56
2023-05-03T16:00:06.583Z,102239.44
2023-05-03T16:02:33.498Z,102251.59
2023-05-03T16:05:00.274Z,102260.91
2023-05-03T16:07:26.963Z,102265.84
2023-05-03T16:09:53.636Z,102281.41
2023-05-03T16:12:20.254Z,102296.91
2023-05-03T16:14:47.153Z,102317.47
2023-05-03T16:17:13.946Z,102318.53
2023-05-03T16:19:40.686Z,102292.97
2023-05-03T16:22:07.617Z,102265.72
2023-05-03T16:24:35.053Z,102249.97
2023-05-03T16:27:04.793Z,102252.63
2023-05-03T16:29:33.533Z,102260.47
2023-05-03T16:32:00.632Z,102264.69
2023-05-03T16:34:27.901Z,102274.13
2023-05-03T16:36:54.584Z,102281.13
2023-05-03T16:39:21.362Z,102281.06
2023-05-03T16:41:48.011Z,102280.19
2023-05-03T16:44:18.426Z,102277.69
2023-05-03T16:46:46.041Z,102274.38
2023-05-03T16:49:12.724Z,102272.81
2023-05-03T16:51:40.895Z,102278.25
2023-05-03T16:54:07.562Z,102265.88
2023-05-03T16:56:34.272Z,102277.44
2023-05-03T16:59:01.275Z,102263.50
2023-05-03T17:01:28.020Z,102267.25
2023-05-03T17:03:54.785Z,102278.00
2023-05-03T17:06:21.492Z,102288.63
2023-05-03T17:08:48.108Z,102282.47
2023-05-03T17:11:15.066Z,102293.06
2023-05-03T17:13:42.289Z,102303.72
2023-05-03T17:16:11.289Z,102297.56
2023-05-03T17:18:40.446Z,102296.66
2023-05-03T17:21:08.476Z,102300.19
2023-05-03T17:23:37.900Z,102290.50
2023-05-03T17:26:06.872Z,102300.19
2023-05-03T17:28:33.605Z,102294.03
2023-05-03T17:31:01.143Z,102288.81
2023-05-03T17:33:27.801Z,102294.09
2023-05-03T17:35:55.858Z,102296.66
2023-05-03T17:38:23.414Z,102301.78
2023-05-03T17:40:50.092Z,102298.03
2023-05-03T17:43:17.803Z,102304.00
2023-05-03T17:45:47.391Z,102294.09
2023-05-03T17:48:14.825Z,102298.41
2023-05-03T17:50:43.189Z,102302.75
2023-05-03T17:53:09.915Z,102300.03
2023-05-03T17:55:38.370Z,102310.59
2023-05-03T17:58:06.345Z,102315.78
2023-05-03T18:00:33.733Z,102319.25
2023-05-03T18:03:00.932Z,102316.53
2023-05-03T18:05:28.053Z,102319.13
2023-05-03T18:07:54.790Z,102323.59
2023-05-03T18:10:22.325Z,102338.78
2023-05-03T18:12:49.212Z,102341.72
2023-05-03T18:15:16.169Z,102345.41
2023-05-03T18:17:43.440Z,102355.09
2023-05-03T18:20:10.638Z,102347.13
2023-05-03T18:22:37.762Z,102350.72
2023-05-03T18:25:07.453Z,102351.66
2023-05-03T18:27:37.597Z,102360.59
2023-05-03T18:30:07.007Z,102359.91
2023-05-03T18:32:34.799Z,102368.06
2023-05-03T18:35:02.568Z,102372.63
2023-05-03T18:37:29.544Z,102371.84
2023-05-03T18:39:56.191Z,102374.63
2023-05-03T18:42:23.178Z,102381.78
2023-05-03T18:44:49.856Z,102388.00
2023-05-03T18:47:20.792Z,102389.81
2023-05-03T18:50:01.261Z,102391.59
2023-05-03T18:52:27.937Z,102393.38
2023-05-03T18:54:54.648Z,102388.94
2023-05-03T18:57:21.762Z,102392.50
2023-05-03T18:59:59.367Z,102402.19
2023-05-03T19:02:30.693Z,102412.78
2023-05-03T19:04:58.229Z,102420.72
2023-05-03T19:07:25.214Z,102418.94
2023-05-03T19:09:58.036Z,102432.16
2023-05-03T19:12:24.660Z,102432.13
2023-05-03T19:14:51.465Z,102426.88
2023-05-03T19:17:18.189Z,102432.13
2023-05-03T19:19:45.107Z,102427.72
2023-05-03T19:22:11.789Z,102430.34
2023-05-03T19:24:39.844Z,102435.56
2023-05-03T19:27:06.505Z,102432.03
2023-05-03T19:29:33.155Z,102440.81
2023-05-03T19:31:59.867Z,102428.53
2023-05-03T19:34:28.015Z,102440.81
2023-05-03T19:36:54.817Z,102444.31
2023-05-03T19:39:21.480Z,102443.41
2023-05-03T19:41:48.934Z,102440.75
2023-05-03T19:44:16.058Z,102439.00
2023-05-03T19:46:42.812Z,102440.75
2023-05-03T19:49:09.498Z,102443.38
2023-05-03T19:51:36.117Z,102444.22
2023-05-03T19:54:03.345Z,102440.66
2023-05-03T19:56:30.073Z,102444.19
2023-05-03T19:58:57.203Z,102449.38
2023-05-03T20:01:23.976Z,102454.63
2023-05-03T20:03:53.448Z,102458.94
2023-05-03T20:06:20.557Z,102459.81
2023-05-03T20:08:47.273Z,102462.41
2023-05-03T20:11:14.013Z,102470.28
2023-05-03T20:13:40.698Z,102470.28
2023-05-03T20:16:08.324Z,102465.00
2023-05-03T20:18:35.176Z,102472.06
2023-05-03T20:21:02.651Z,102472.91
2023-05-03T20:23:29.496Z,102469.41
2023-05-03T20:25:56.256Z,102474.72
2023-05-03T20:28:23.235Z,102475.59
2023-05-03T20:30:49.986Z,102472.97
2023-05-03T20:33:16.670Z,102476.53
2023-05-03T20:35:44.536Z,102474.78
2023-05-03T20:38:11.505Z,102474.78
2023-05-03T20:40:38.389Z,102478.31
2023-05-03T20:43:05.054Z,102475.66
2023-05-03T20:45:31.961Z,102473.88
2023-05-03T20:47:58.764Z,102472.97
2023-05-03T20:50:25.477Z,102472.97
2023-05-03T20:52:52.139Z,102477.34
2023-05-03T20:55:19.002Z,102481.66
2023-05-03T20:57:45.868Z,102485.13
2023-05-03T21:00:13.294Z,102487.75
2023-05-03T21:02:40.025Z,102492.13
2023-05-03T21:05:07.103Z,102491.25
2023-05-03T21:07:33.720Z,102493.03
2023-05-03T21:10:00.572Z,102480.75
2023-05-03T21:12:27.310Z,102475.53
2023-05-03T21:14:53.954Z,102476.44
2023-05-03T21:17:20.593Z,102482.53
2023-05-03T21:19:47.251Z,102478.16
2023-05-03T21:22:13.893Z,102472.84
2023-05-03T21:24:40.527Z,102486.03
2023-05-03T21:27:07.169Z,102480.72
2023-05-03T21:29:33.828Z,102481.59
2023-05-03T21:32:00.788Z,102480.69
2023-05-03T21:34:27.534Z,102477.97
2023-05-03T21:36:54.187Z,102482.25
2023-05-03T21:39:21.576Z,102481.31
2023-05-03T21:41:48.377Z,102483.00
2023-05-03T21:44:15.118Z,102482.09
2023-05-03T21:46:44.622Z,102475.03
2023-05-03T21:49:11.932Z,102478.50
2023-05-03T21:51:38.601Z,102480.22
2023-05-03T21:54:05.380Z,102480.16
2023-05-03T21:56:32.163Z,102484.50
2023-05-03T21:58:58.852Z,102492.38
2023-05-03T22:01:25.597Z,102483.59
2023-05-03T22:03:53.241Z,102484.47
2023-05-03T22:06:20.077Z,102486.25
2023-05-03T22:08:46.697Z,102493.22
2023-05-03T22:11:13.643Z,102493.19
2023-05-03T22:13:54.482Z,102497.56
2023-05-03T22:16:25.941Z,102498.47
2023-05-03T22:18:52.734Z,102502.78
2023-05-03T22:21:19.377Z,102507.94
2023-05-03T22:23:46.136Z,102508.75
2023-05-03T22:26:12.795Z,102513.97
2023-05-03T22:28:39.446Z,102516.59
2023-05-03T22:31:06.341Z,102511.28
2023-05-03T22:33:33.085Z,102509.53
2023-05-03T22:35:59.730Z,102511.28
2023-05-03T22:38:26.368Z,102516.56
2023-05-03T22:40:53.041Z,102504.28
2023-05-03T22:43:19.796Z,102508.66
2023-05-03T22:45:47.227Z,102510.41
2023-05-03T22:48:14.023Z,102516.41
2023-05-03T22:50:40.677Z,102510.94
2023-05-03T22:53:07.361Z,102509.13
2023-05-03T22:55:34.061Z,102517.84
2023-05-03T22:58:01.102Z,102516.16
2023-05-03T23:00:28.163Z,102521.44
2023-05-03T23:02:54.937Z,102522.38
2023-05-03T23:05:21.946Z,102517.09
2023-05-03T23:07:48.780Z,102515.41
2023-05-03T23:10:15.501Z,102520.72
2023-05-03T23:12:42.255Z,102517.91
2023-05-03T23:15:09.236Z,102520.38
2023-05-03T23:17:35.973Z,102525.59
2023-05-03T23:20:03.092Z,102525.63
2023-05-03T23:22:29.999Z,102517.75
2023-05-03T23:24:56.743Z,102524.75
2023-05-03T23:27:23.796Z,102526.53
2023-05-03T23:29:51.079Z,102525.69
2023-05-03T23:32:18.411Z,102516.91
2023-05-03T23:34:45.726Z,102520.47
2023-05-03T23:37:12.387Z,102525.69
2023-05-03T23:39:43.963Z,102533.31
2023-05-03T23:42:12.013Z,102532.84
2023-05-03T23:44:53.680Z,102536.03
2023-05-03T23:47:21.576Z,102541.31
2023-05-03T23:49:48.302Z,102539.69
2023-05-03T23:52:17.033Z,102539.84
2023-05-03T23:54:43.760Z,102540.81
2023-05-03T23:57:10.561Z,102545.28
2023-05-03T23:59:37.951Z,102546.16
